createdAt,value
2023-03-28T00:03:27.124Z,58.95
2023-03-28T00:08:30.682Z,59.20
2023-03-28T00:13:35.370Z,59.28
2023-03-28T00:18:39.387Z,59.30
2023-03-28T00:23:42.696Z,59.41
2023-03-28T00:28:47.603Z,59.37
2023-03-28T00:33:50.477Z,59.79
2023-03-28T00:38:54.349Z,59.44
2023-03-28T00:43:58.864Z,59.67
2023-03-28T00:49:06.752Z,59.52
2023-03-28T00:54:13.019Z,59.81
2023-03-28T00:59:21.135Z,59.87
2023-03-28T01:04:28.391Z,59.85
2023-03-28T01:09:32.034Z,60.05
2023-03-28T01:14:39.166Z,60.02
2023-03-28T01:19:59.158Z,60.08
2023-03-28T01:25:39.772Z,60.21
2023-03-28T01:31:08.532Z,60.32
2023-03-28T01:36:59.381Z,60.39
2023-03-28T01:42:15.937Z,60.30
2023-03-28T01:47:29.080Z,60.31
2023-03-28T01:52:37.748Z,60.59
2023-03-28T01:57:46.618Z,60.53
2023-03-28T02:02:56.305Z,60.43
2023-03-28T02:08:09.314Z,60.57
2023-03-28T02:13:22.647Z,60.63
2023-03-28T02:18:41.578Z,60.85
2023-03-28T02:24:06.355Z,61.02
2023-03-28T02:29:19.234Z,60.98
2023-03-28T02:34:34.264Z,60.90
2023-03-28T02:39:48.201Z,60.84
2023-03-28T02:45:11.324Z,60.74
2023-03-28T02:50:25.493Z,60.91
2023-03-28T02:55:38.260Z,60.82
2023-03-28T03:00:49.737Z,60.68
2023-03-28T03:05:52.594Z,60.94
2023-03-28T03:10:57.008Z,60.98
2023-03-28T03:16:00.397Z,60.97
2023-03-28T03:21:03.965Z,61.07
2023-03-28T03:26:08.337Z,61.05
2023-03-28T03:31:19.486Z,60.75
2023-03-28T03:36:52.962Z,60.75
2023-03-28T03:41:57.558Z,60.68
2023-03-28T03:47:00.384Z,60.70
2023-03-28T03:52:04.541Z,60.84
2023-03-28T03:57:08.796Z,60.81
2023-03-28T04:02:12.167Z,60.72
2023-03-28T04:07:19.569Z,60.67
2023-03-28T04:12:25.653Z,60.58
2023-03-28T04:17:34.672Z,60.65
2023-03-28T04:22:46.122Z,60.52
2023-03-28T04:27:54.519Z,60.56
2023-03-28T04:32:59.191Z,60.46
2023-03-28T04:38:03.418Z,60.42
2023-03-28T04:43:07.677Z,60.58
2023-03-28T04:48:14.367Z,60.42
2023-03-28T04:53:17.865Z,60.64
2023-03-28T04:58:44.972Z,60.59
2023-03-28T05:03:47.932Z,60.62
2023-03-28T05:08:50.774Z,60.59
2023-03-28T05:13:55.455Z,60.76
2023-03-28T05:19:10.011Z,60.77
2023-03-28T05:24:36.871Z,60.90
2023-03-28T05:29:49.131Z,60.78
2023-03-28T05:34:53.283Z,60.98
2023-03-28T05:39:56.613Z,60.91
2023-03-28T05:45:01.102Z,61.04
2023-03-28T05:50:14.750Z,61.02
2023-03-28T05:55:17.845Z,61.05
2023-03-28T06:00:23.531Z,61.02
2023-03-28T06:05:28.691Z,61.12
2023-03-28T06:10:32.164Z,61.24
2023-03-28T06:15:53.073Z,61.18
2023-03-28T06:21:04.078Z,61.17
2023-03-28T06:26:07.833Z,61.05
2023-03-28T06:31:19.709Z,61.29
2023-03-28T06:36:23.149Z,61.09
2023-03-28T06:41:27.701Z,61.17
2023-03-28T06:46:32.142Z,61.15
2023-03-28T06:51:35.649Z,61.22
2023-03-28T06:56:38.484Z,61.09
2023-03-28T07:01:42.791Z,61.11
2023-03-28T07:06:47.474Z,60.89
2023-03-28T07:11:50.354Z,60.81
2023-03-28T07:16:55.956Z,60.35
2023-03-28T07:21:59.188Z,50.99
2023-03-28T07:27:14.956Z,44.86
2023-03-28T07:32:22.285Z,43.11
2023-03-28T07:37:25.302Z,42.78
2023-03-28T07:42:49.773Z,45.09
2023-03-28T07:47:53.950Z,48.92
2023-03-28T07:52:58.808Z,50.62
2023-03-28T07:58:03.517Z,51.27
2023-03-28T08:03:15.967Z,51.77
2023-03-28T08:08:20.556Z,52.25
2023-03-28T08:13:34.575Z,53.13
2023-03-28T08:18:44.452Z,53.99
2023-03-28T08:23:47.670Z,52.75
2023-03-28T08:29:11.547Z,55.44
2023-03-28T08:34:16.182Z,56.48
2023-03-28T08:39:20.184Z,57.01
2023-03-28T08:44:48.838Z,57.74
2023-03-28T08:49:58.295Z,58.17
2023-03-28T08:55:06.350Z,58.74
2023-03-28T09:00:17.116Z,59.23
2023-03-28T09:05:26.629Z,60.08
2023-03-28T09:10:41.643Z,60.68
2023-03-28T09:16:03.060Z,60.73
2023-03-28T09:21:16.676Z,60.58
2023-03-28T09:26:25.260Z,61.33
2023-03-28T09:31:38.743Z,63.95
2023-03-28T09:36:49.893Z,65.77
2023-03-28T09:42:04.777Z,66.47
2023-03-28T09:47:34.397Z,67.69
2023-03-28T09:52:44.890Z,67.91
2023-03-28T09:58:02.368Z,68.35
2023-03-28T10:03:08.196Z,69.43
2023-03-28T10:08:24.566Z,70.03
2023-03-28T10:13:47.163Z,69.35
2023-03-28T10:18:50.536Z,68.05
2023-03-28T10:24:15.957Z,66.88
2023-03-28T10:29:24.616Z,66.10
2023-03-28T10:34:29.914Z,65.24
2023-03-28T10:40:26.562Z,64.63
2023-03-28T10:45:51.376Z,64.05
2023-03-28T10:51:10.568Z,63.60
2023-03-28T10:56:27.295Z,46.10
2023-03-28T11:01:36.165Z,46.03
2023-03-28T11:06:52.971Z,50.00
2023-03-28T11:12:27.892Z,51.32
2023-03-28T11:17:46.009Z,52.05
2023-03-28T11:23:06.407Z,52.67
2023-03-28T11:28:33.531Z,53.17
2023-03-28T11:33:55.953Z,53.73
2023-03-28T11:39:05.288Z,54.35
2023-03-28T11:44:17.257Z,54.59
2023-03-28T11:49:28.378Z,54.85
2023-03-28T11:54:38.899Z,55.09
2023-03-28T11:59:50.256Z,55.50
2023-03-28T12:04:59.900Z,55.67
2023-03-28T12:10:10.019Z,55.59
2023-03-28T12:15:19.269Z,55.12
2023-03-28T12:20:36.696Z,55.44
2023-03-28T12:25:51.405Z,55.40
2023-03-28T12:31:06.273Z,55.71
2023-03-28T12:36:18.435Z,55.93
2023-03-28T12:41:26.001Z,56.48
2023-03-28T12:46:38.358Z,56.91
2023-03-28T12:51:45.884Z,57.43
2023-03-28T12:57:03.888Z,57.93
2023-03-28T13:02:17.388Z,58.64
2023-03-28T13:07:55.024Z,58.37
2023-03-28T13:13:13.011Z,59.15
2023-03-28T13:18:34.834Z,59.86
2023-03-28T13:23:47.726Z,59.68
2023-03-28T13:28:51.843Z,58.90
2023-03-28T13:34:01.704Z,58.52
2023-03-28T13:39:19.990Z,57.75
2023-03-28T13:44:28.502Z,52.39
2023-03-28T13:49:42.457Z,43.45
2023-03-28T13:54:46.039Z,50.22
2023-03-28T13:59:53.061Z,51.36
2023-03-28T14:05:06.606Z,51.81
2023-03-28T14:10:30.977Z,52.81
2023-03-28T14:15:37.147Z,53.35
2023-03-28T14:20:42.332Z,53.39
2023-03-28T14:25:45.134Z,53.34
2023-03-28T14:30:48.271Z,53.76
2023-03-28T14:36:01.529Z,53.77
2023-03-28T14:41:13.060Z,53.90
2023-03-28T14:46:16.491Z,53.57
2023-03-28T14:51:22.211Z,54.01
2023-03-28T14:56:28.376Z,54.09
2023-03-28T15:01:34.103Z,54.18
2023-03-28T15:06:39.504Z,54.43
2023-03-28T15:11:44.599Z,54.78
2023-03-28T15:16:48.367Z,55.36
2023-03-28T15:21:56.733Z,55.81
2023-03-28T15:27:04.015Z,56.04
2023-03-28T15:32:13.994Z,56.45
2023-03-28T15:37:21.180Z,56.73
2023-03-28T15:42:36.276Z,57.04
2023-03-28T15:47:39.501Z,55.98
2023-03-28T15:52:44.297Z,56.03
2023-03-28T15:57:48.988Z,56.59
2023-03-28T16:02:52.044Z,56.70
2023-03-28T16:07:56.375Z,55.78
2023-03-28T16:12:59.376Z,54.78
2023-03-28T16:18:22.050Z,55.09
2023-03-28T16:23:32.208Z,55.66
2023-03-28T16:28:35.920Z,55.79
2023-03-28T16:33:38.708Z,56.11
2023-03-28T16:38:42.841Z,56.12
2023-03-28T16:43:45.620Z,56.07
2023-03-28T16:48:48.809Z,55.57
2023-03-28T16:53:53.253Z,56.12
2023-03-28T16:58:56.154Z,55.42
2023-03-28T17:03:59.086Z,55.24
2023-03-28T17:09:04.488Z,54.64
2023-03-28T17:14:07.469Z,53.85
2023-03-28T17:19:10.294Z,53.97
2023-03-28T17:24:14.876Z,53.06
2023-03-28T17:29:17.823Z,52.62
2023-03-28T17:34:20.916Z,52.48
2023-03-28T17:39:25.298Z,52.50
2023-03-28T17:44:28.836Z,53.34
2023-03-28T17:49:31.714Z,53.64
2023-03-28T17:54:35.886Z,53.78
2023-03-28T17:59:38.768Z,54.06
2023-03-28T18:04:42.657Z,54.20
2023-03-28T18:10:00.820Z,54.21
2023-03-28T18:15:04.481Z,54.46
2023-03-28T18:20:08.650Z,54.50
2023-03-28T18:25:12.872Z,54.37
2023-03-28T18:30:15.809Z,54.45
2023-03-28T18:35:18.858Z,54.09
2023-03-28T18:40:24.320Z,54.40
2023-03-28T18:45:27.120Z,54.09
2023-03-28T18:50:30.095Z,54.00
2023-03-28T18:55:34.217Z,53.74
2023-03-28T19:00:38.528Z,53.73
2023-03-28T19:05:41.533Z,53.68
2023-03-28T19:10:47.609Z,53.45
2023-03-28T19:15:59.529Z,53.56
2023-03-28T19:21:02.813Z,53.45
2023-03-28T19:26:09.381Z,53.38
2023-03-28T19:31:14.432Z,53.37
2023-03-28T19:36:17.646Z,53.26
2023-03-28T19:41:24.275Z,53.85
2023-03-28T19:46:33.220Z,53.24
2023-03-28T19:51:38.384Z,53.18
2023-03-28T19:56:42.997Z,53.05
2023-03-28T20:01:45.863Z,53.05
2023-03-28T20:06:49.432Z,53.03
2023-03-28T20:11:53.955Z,52.89
2023-03-28T20:16:56.775Z,52.93
2023-03-28T20:21:59.481Z,52.85
2023-03-28T20:27:04.415Z,53.08
2023-03-28T20:32:09.822Z,52.98
2023-03-28T20:37:14.151Z,52.89
2023-03-28T20:42:19.352Z,52.73
2023-03-28T20:47:25.152Z,53.36
2023-03-28T20:52:27.967Z,53.03
2023-03-28T20:57:35.800Z,52.95
2023-03-28T21:02:38.871Z,53.15
2023-03-28T21:07:43.944Z,53.31
2023-03-28T21:12:49.103Z,53.36
2023-03-28T21:17:53.597Z,53.33
2023-03-28T21:22:56.858Z,53.41
2023-03-28T21:28:01.457Z,53.45
2023-03-28T21:33:04.603Z,53.48
2023-03-28T21:38:07.439Z,53.68
2023-03-28T21:43:11.576Z,53.66
2023-03-28T21:48:14.395Z,53.96
2023-03-28T21:53:17.190Z,53.89
2023-03-28T21:58:21.483Z,53.97
2023-03-28T22:03:24.947Z,53.94
2023-03-28T22:08:27.837Z,53.96
2023-03-28T22:13:31.981Z,54.04
2023-03-28T22:18:34.726Z,54.12
2023-03-28T22:23:37.455Z,54.28
2023-03-28T22:28:41.548Z,54.39
2023-03-28T22:33:44.292Z,54.44
2023-03-28T22:38:47.619Z,54.63
2023-03-28T22:43:51.785Z,54.94
2023-03-28T22:48:58.240Z,55.19
2023-03-28T22:54:03.071Z,55.61
2023-03-28T22:59:07.239Z,55.86
2023-03-28T23:04:09.972Z,56.23
2023-03-28T23:09:13.811Z,56.81
2023-03-28T23:14:17.919Z,57.21
2023-03-28T23:19:22.407Z,57.62
2023-03-28T23:24:26.154Z,57.88
2023-03-28T23:29:30.422Z,58.04
2023-03-28T23:34:34.732Z,58.55
2023-03-28T23:39:39.203Z,58.68
2023-03-28T23:44:43.280Z,58.88
2023-03-28T23:49:45.993Z,58.98
2023-03-28T23:54:48.832Z,59.16
2023-03-28T23:59:53.179Z,59.61
